Time;durP1;ratioP1;P1;durP2;ratioP2;P2;SDS_P1;SDS_P2;PMS_P1;PMS_P2;Temp;Humidity;BMP_temperature;BMP_pressure;BME280_temperature;BME280_humidity;BME280_pressure;Samples;Min_cycle;Max_cycle;Signal;HPM_P1;HPM_P2
2021/06/18 00:02:18;;;;;;;;;;;;;;;22.84;61.72;99750.56;5133144;27;20327;-39
2021/06/18 00:04:43;;;;;;;;;;;;;;;22.88;61.72;99748.09;5132868;27;19946;-38
2021/06/18 00:07:08;;;;;;;;;;;;;;;22.86;61.57;99753.78;5133075;27;20306;-38
2021/06/18 00:09:34;;;;;;;;;;;;;;;22.76;61.90;99754.69;5132994;27;19992;-38
2021/06/18 00:11:59;;;;;;;;;;;;;;;22.82;61.67;99755.47;5133126;27;19911;-38
2021/06/18 00:14:24;;;;;;;;;;;;;;;22.83;61.58;99755.19;5133014;27;19926;-38
2021/06/18 00:16:49;;;;;;;;;;;;;;;22.85;61.39;99746.75;5132931;27;20006;-38
2021/06/18 00:19:15;;;;;;;;;;;;;;;22.86;61.36;99739.44;5132890;27;19919;-38
2021/06/18 00:21:40;;;;;;;;;;;;;;;22.87;61.46;99736.44;5133023;27;19934;-38
2021/06/18 00:24:06;;;;;;;;;;;;;;;22.87;61.61;99722.06;5133284;27;20359;-39
2021/06/18 00:26:31;;;;;;;;;;;;;;;22.88;61.64;99735.31;5133153;27;20275;-38
2021/06/18 00:28:56;;;;;;;;;;;;;;;22.39;63.25;99726.25;5133479;27;20010;-39
2021/06/18 00:31:22;;;;;;;;;;;;;;;22.32;63.04;99725.75;5133054;27;19923;-39
2021/06/18 00:33:47;;;;;;;;;;;;;;;22.43;62.85;99726.50;5144218;27;19911;-39
2021/06/18 00:36:12;;;;;;;;;;;;;;;22.62;61.93;99730.13;5153864;27;19922;-39
2021/06/18 00:38:37;;;;;;;;;;;;;;;22.54;62.52;99729.91;5153404;27;19986;-39
2021/06/18 00:41:03;;;;;;;;;;;;;;;22.55;62.23;99726.13;5153954;27;20388;-38
2021/06/18 00:43:28;;;;;;;;;;;;;;;22.56;62.31;99720.44;5153885;27;19967;-39
2021/06/18 00:45:54;;;;;;;;;;;;;;;22.67;62.02;99714.91;5154001;27;20002;-39
2021/06/18 00:48:20;;;;;;;;;;;;;;;22.62;62.29;99716.56;5153692;27;19959;-38
2021/06/18 00:50:45;;;;;;;;;;;;;;;22.67;62.20;99717.63;5135121;27;19994;-38
2021/06/18 00:53:12;;;;;;;;;;;;;;;22.61;61.82;99697.88;5134773;27;20026;-38
2021/06/18 00:55:37;;;;;;;;;;;;;;;22.72;62.21;99715.69;5153397;27;19918;-39
2021/06/18 00:58:03;;;;;;;;;;;;;;;22.63;62.08;99706.53;5153353;27;19911;-37
2021/06/18 01:00:28;;;;;;;;;;;;;;;22.56;62.38;99700.63;5153534;27;19915;-38
2021/06/18 01:02:53;;;;;;;;;;;;;;;22.62;61.94;99700.31;5153306;27;19911;-38
2021/06/18 01:05:19;;;;;;;;;;;;;;;22.39;62.94;99699.13;5153064;27;20037;-38
2021/06/18 01:07:57;;;;;;;;;;;;;;;22.61;62.15;99704.09;5152905;27;19979;-38
2021/06/18 01:10:28;;;;;;;;;;;;;;;22.69;62.00;99701.88;5152554;27;20014;-38
2021/06/18 01:13:06;;;;;;;;;;;;;;;22.53;62.46;99698.50;5152541;27;19915;-37
2021/06/18 01:15:48;;;;;;;;;;;;;;;22.57;62.29;99697.63;5133963;27;19979;-38
2021/06/18 01:18:14;;;;;;;;;;;;;;;22.59;62.38;99691.94;5134563;27;19938;-38
2021/06/18 01:20:52;;;;;;;;;;;;;;;22.65;61.99;99693.50;5133898;27;19922;-39
2021/06/18 01:23:24;;;;;;;;;;;;;;;22.49;62.63;99694.72;5131991;27;19938;-38
2021/06/18 01:25:51;;;;;;;;;;;;;;;22.25;63.46;99695.44;5113657;27;20327;-38
2021/06/18 01:28:19;;;;;;;;;;;;;;;22.15;63.97;99699.00;5132106;27;19911;-37
2021/06/18 01:30:44;;;;;;;;;;;;;;;22.00;64.13;99693.69;5131870;27;19911;-39
2021/06/18 01:33:10;;;;;;;;;;;;;;;21.91;64.17;99698.88;5118666;27;20295;-39
2021/06/18 01:35:37;;;;;;;;;;;;;;;22.01;64.13;99693.41;5133485;27;19950;-38
2021/06/18 01:38:02;;;;;;;;;;;;;;;22.22;63.32;99701.41;5152033;27;19978;-38
2021/06/18 01:40:29;;;;;;;;;;;;;;;22.02;63.53;99696.91;5133233;27;20441;-38
2021/06/18 01:42:54;;;;;;;;;;;;;;;22.10;63.97;99709.84;5151808;27;20247;-38
2021/06/18 01:45:20;;;;;;;;;;;;;;;22.19;63.66;99705.47;5152139;27;19934;-38
2021/06/18 01:47:45;;;;;;;;;;;;;;;22.18;63.51;99706.56;5150630;27;20051;-38
2021/06/18 01:50:18;;;;;;;;;;;;;;;22.01;63.98;99700.72;5130264;27;20432;-38
2021/06/18 01:52:45;;;;;;;;;;;;;;;21.99;63.73;99708.31;5129884;27;19918;-38
2021/06/18 01:55:10;;;;;;;;;;;;;;;21.85;64.54;99711.63;5130116;27;20028;-38
2021/06/18 01:57:36;;;;;;;;;;;;;;;21.91;64.52;99707.00;5130138;27;19969;-38
2021/06/18 02:00:02;;;;;;;;;;;;;;;21.94;64.26;99705.66;5131101;27;20371;-38
2021/06/18 02:02:27;;;;;;;;;;;;;;;21.70;65.04;99705.47;5131578;27;20003;-38
2021/06/18 02:04:53;;;;;;;;;;;;;;;21.80;64.87;99700.84;5131602;28;19916;-37
2021/06/18 02:07:19;;;;;;;;;;;;;;;21.53;64.95;99703.13;5129714;28;19911;-38
2021/06/18 02:09:44;;;;;;;;;;;;;;;21.60;65.00;99707.16;5130195;28;19922;-39
2021/06/18 02:12:10;;;;;;;;;;;;;;;21.51;65.02;99708.81;5130388;28;19915;-38
2021/06/18 02:14:35;;;;;;;;;;;;;;;21.37;65.25;99696.94;5130113;28;19916;-38
2021/06/18 02:17:01;;;;;;;;;;;;;;;21.50;65.00;99706.41;5131311;28;20332;-38
2021/06/18 02:19:26;;;;;;;;;;;;;;;21.78;64.05;99705.72;5131197;27;19973;-37
2021/06/18 02:21:52;;;;;;;;;;;;;;;21.91;63.74;99703.47;5122054;28;19931;-38
2021/06/18 02:24:18;;;;;;;;;;;;;;;21.79;63.79;99703.81;5131025;27;19919;-39
2021/06/18 02:26:43;;;;;;;;;;;;;;;21.95;63.25;99704.53;5112590;28;19911;-38
2021/06/18 02:29:09;;;;;;;;;;;;;;;21.56;64.39;99705.28;5112806;28;20375;-38
2021/06/18 02:31:34;;;;;;;;;;;;;;;21.70;63.97;99714.41;5131392;28;20540;-37
2021/06/18 02:34:00;;;;;;;;;;;;;;;21.43;64.06;99712.88;5131616;28;20414;-38
2021/06/18 02:36:25;;;;;;;;;;;;;;;21.45;64.19;99716.13;5131838;28;20002;-38
2021/06/18 02:38:50;;;;;;;;;;;;;;;20.86;66.19;99720.28;5131154;28;19923;-39
2021/06/18 02:41:16;;;;;;;;;;;;;;;20.98;66.03;99711.91;5112791;28;19912;-38
2021/06/18 02:43:41;;;;;;;;;;;;;;;21.10;65.60;99717.03;5131353;28;19963;-38
2021/06/18 02:46:06;;;;;;;;;;;;;;;20.91;66.26;99714.09;5131263;28;19968;-38
2021/06/18 02:48:33;;;;;;;;;;;;;;;21.26;65.39;99720.50;5131594;27;20002;-39
2021/06/18 02:51:01;;;;;;;;;;;;;;;21.37;64.40;99707.75;5131230;27;19960;-39
2021/06/18 02:53:32;;;;;;;;;;;;;;;21.38;64.51;99699.38;5131365;28;19960;-38
2021/06/18 02:55:59;;;;;;;;;;;;;;;21.29;63.93;99701.03;5131199;28;19919;-39
2021/06/18 02:58:25;;;;;;;;;;;;;;;21.40;64.10;99699.06;5112910;28;19976;-39
2021/06/18 03:00:51;;;;;;;;;;;;;;;21.47;64.18;99707.75;5132233;27;19911;-39
2021/06/18 03:03:18;;;;;;;;;;;;;;;21.64;63.52;99707.41;5135149;27;19994;-39
2021/06/18 03:05:46;;;;;;;;;;;;;;;21.68;63.58;99703.03;5134962;27;20003;-39
2021/06/18 03:08:12;;;;;;;;;;;;;;;21.78;63.68;99696.78;5116911;27;19916;-39
2021/06/18 03:10:38;;;;;;;;;;;;;;;21.88;63.35;99698.63;5135122;27;19922;-38
2021/06/18 03:13:15;;;;;;;;;;;;;;;22.02;62.71;99697.72;5119706;27;19922;-38
2021/06/18 03:15:41;;;;;;;;;;;;;;;22.09;62.66;99702.84;5155545;27;19976;-38
2021/06/18 03:18:06;;;;;;;;;;;;;;;22.13;62.20;99709.31;5155198;27;19998;-38
2021/06/18 03:20:33;;;;;;;;;;;;;;;22.20;62.15;99717.09;5136705;27;20014;-37
2021/06/18 03:22:59;;;;;;;;;;;;;;;22.33;61.82;99713.81;5116645;27;20438;-38
2021/06/18 03:25:25;;;;;;;;;;;;;;;22.29;61.71;99714.66;5116048;27;19911;-38
2021/06/18 03:27:51;;;;;;;;;;;;;;;22.35;61.96;99703.50;5134571;27;19918;-38
2021/06/18 03:30:16;;;;;;;;;;;;;;;21.90;62.81;99716.22;5116065;27;20006;-38
2021/06/18 03:32:42;;;;;;;;;;;;;;;21.20;63.64;99700.75;5115986;27;19947;-38
2021/06/18 03:35:07;;;;;;;;;;;;;;;21.20;63.46;99694.53;5115978;27;19919;-38
2021/06/18 03:37:32;;;;;;;;;;;;;;;21.13;63.48;99696.72;5134170;27;20028;-39
2021/06/18 03:39:58;;;;;;;;;;;;;;;21.15;63.21;99702.66;5115621;27;20500;-38
2021/06/18 03:42:23;;;;;;;;;;;;;;;21.33;62.99;99702.09;5115661;27;19916;-38
2021/06/18 03:44:48;;;;;;;;;;;;;;;21.50;62.32;99700.97;5134512;27;19911;-38
2021/06/18 03:47:13;;;;;;;;;;;;;;;21.70;61.29;99700.88;5134084;27;19911;-38
2021/06/18 03:49:39;;;;;;;;;;;;;;;21.90;61.13;99708.09;5115806;27;19922;-37
2021/06/18 03:52:04;;;;;;;;;;;;;;;22.22;60.59;99710.34;5115457;27;19923;-38
2021/06/18 03:54:32;;;;;;;;;;;;;;;22.21;60.94;99700.56;5134178;27;19918;-38
2021/06/18 03:56:58;;;;;;;;;;;;;;;22.55;60.30;99693.59;5133769;27;19911;-38
2021/06/18 03:59:24;;;;;;;;;;;;;;;22.87;59.31;99698.44;5115288;27;20243;-39
2021/06/18 04:01:53;;;;;;;;;;;;;;;23.21;58.13;99700.31;5134052;27;19911;-37
2021/06/18 04:04:18;;;;;;;;;;;;;;;23.41;57.80;99694.63;5115174;27;19919;-38
2021/06/18 04:06:44;;;;;;;;;;;;;;;23.65;57.21;99699.25;5114916;27;19911;-38
2021/06/18 04:09:09;;;;;;;;;;;;;;;23.68;56.96;99690.50;5115360;27;19919;-39
2021/06/18 04:11:34;;;;;;;;;;;;;;;23.96;56.37;99698.84;5114371;27;19961;-39
2021/06/18 04:14:00;;;;;;;;;;;;;;;24.24;56.30;99704.41;5122472;27;19911;-39
2021/06/18 04:16:25;;;;;;;;;;;;;;;24.55;55.65;99708.28;5133324;27;19923;-38
2021/06/18 04:18:51;;;;;;;;;;;;;;;24.38;55.76;99702.56;5133184;27;19916;-38
2021/06/18 04:21:20;;;;;;;;;;;;;;;24.71;55.16;99700.69;5133234;27;19911;-38
2021/06/18 04:23:45;;;;;;;;;;;;;;;24.95;54.13;99702.44;5132925;27;19915;-38
2021/06/18 04:26:11;;;;;;;;;;;;;;;25.16;54.56;99700.94;5130097;27;20310;-38
2021/06/18 04:28:36;;;;;;;;;;;;;;;25.37;54.00;99697.88;5133007;27;19934;-38
2021/06/18 04:31:01;;;;;;;;;;;;;;;25.51;53.45;99703.28;5115239;27;19915;-38
2021/06/18 04:33:26;;;;;;;;;;;;;;;25.71;52.62;99696.63;5112758;28;20025;-38
2021/06/18 04:35:52;;;;;;;;;;;;;;;25.39;52.14;99682.03;5112577;28;19950;-39
2021/06/18 04:38:17;;;;;;;;;;;;;;;25.92;51.69;99705.19;5112526;28;19911;-38
2021/06/18 04:40:42;;;;;;;;;;;;;;;25.90;50.51;99708.19;5112425;28;19916;-39
2021/06/18 04:43:08;;;;;;;;;;;;;;;25.81;50.50;99710.03;5112461;28;19912;-38
2021/06/18 04:45:33;;;;;;;;;;;;;;;26.13;50.25;99702.81;5112346;28;19915;-38
2021/06/18 04:47:59;;;;;;;;;;;;;;;26.27;49.51;99706.31;5144443;27;19915;-38
2021/06/18 04:50:24;;;;;;;;;;;;;;;26.46;49.66;99695.19;5134806;27;19918;-39
2021/06/18 04:52:50;;;;;;;;;;;;;;;26.51;49.86;99697.00;5153344;27;19918;-39
2021/06/18 04:55:16;;;;;;;;;;;;;;;26.61;49.13;99695.97;5153452;27;19911;-37
2021/06/18 04:57:42;;;;;;;;;;;;;;;26.63;49.26;99696.44;5153206;27;19918;-38
2021/06/18 05:00:08;;;;;;;;;;;;;;;26.62;48.90;99689.41;5153430;27;19919;-38
2021/06/18 05:02:33;;;;;;;;;;;;;;;26.25;49.41;99689.41;5134142;27;19922;-38
2021/06/18 05:04:58;;;;;;;;;;;;;;;26.37;49.22;99699.78;5143331;27;20301;-37
2021/06/18 05:07:24;;;;;;;;;;;;;;;26.31;50.20;99703.75;5132203;27;19960;-38
2021/06/18 05:09:49;;;;;;;;;;;;;;;26.16;50.74;99698.66;5132523;27;19916;-38
2021/06/18 05:12:14;;;;;;;;;;;;;;;26.28;50.51;99701.66;5131993;27;20002;-38
2021/06/18 05:14:40;;;;;;;;;;;;;;;26.41;50.15;99708.97;5132305;27;19976;-38
2021/06/18 05:17:05;;;;;;;;;;;;;;;26.47;49.07;99715.09;5132174;27;19975;-40
2021/06/18 05:19:30;;;;;;;;;;;;;;;26.84;48.96;99716.63;5132454;27;20001;-37
2021/06/18 05:21:55;;;;;;;;;;;;;;;26.86;49.17;99716.31;5120882;27;20279;-40
2021/06/18 05:24:21;;;;;;;;;;;;;;;27.27;48.30;99718.00;5110480;28;19911;-39
2021/06/18 05:26:46;;;;;;;;;;;;;;;27.32;48.28;99717.84;5110938;28;20336;-39
2021/06/18 05:29:11;;;;;;;;;;;;;;;27.45;47.89;99707.91;5110841;28;19947;-38
2021/06/18 05:31:37;;;;;;;;;;;;;;;27.75;47.17;99719.88;5110363;28;19919;-39
2021/06/18 05:34:02;;;;;;;;;;;;;;;27.99;46.98;99707.75;5110301;28;20027;-38
2021/06/18 05:36:27;;;;;;;;;;;;;;;28.11;46.09;99701.63;5110485;28;19919;-38
2021/06/18 05:38:52;;;;;;;;;;;;;;;28.19;46.71;99706.28;5110494;28;19926;-38
2021/06/18 05:41:18;;;;;;;;;;;;;;;28.97;45.03;99705.38;5110601;28;20007;-39
2021/06/18 05:43:43;;;;;;;;;;;;;;;29.51;44.13;99702.91;5110355;28;19955;-39
2021/06/18 05:46:08;;;;;;;;;;;;;;;29.98;43.89;99716.47;5126649;27;19916;-38
2021/06/18 05:48:34;;;;;;;;;;;;;;;30.35;41.95;99697.47;5117877;27;20283;-38
2021/06/18 05:50:59;;;;;;;;;;;;;;;30.00;42.34;99714.19;5123507;27;20006;-38
2021/06/18 05:53:24;;;;;;;;;;;;;;;30.19;41.84;99705.47;5125059;27;19915;-39
2021/06/18 05:55:50;;;;;;;;;;;;;;;29.58;42.80;99707.84;5108382;27;19922;-39
2021/06/18 05:58:15;;;;;;;;;;;;;;;30.13;42.28;99704.09;5118833;27;20383;-39
2021/06/18 06:00:43;;;;;;;;;;;;;;;30.69;41.44;99700.19;5118051;27;19919;-39
2021/06/18 06:03:09;;;;;;;;;;;;;;;31.10;40.88;99701.22;5131065;28;20255;-38
2021/06/18 06:05:34;;;;;;;;;;;;;;;31.51;38.84;99700.22;5131104;28;19968;-38
2021/06/18 06:08:00;;;;;;;;;;;;;;;31.43;38.77;99703.03;5131285;28;20017;-39
2021/06/18 06:10:25;;;;;;;;;;;;;;;30.82;40.11;99695.53;5130800;28;20002;-39
2021/06/18 06:12:50;;;;;;;;;;;;;;;30.43;40.45;99695.00;5130573;28;19934;-51
2021/06/18 06:15:15;;;;;;;;;;;;;;;30.85;40.56;99692.91;5130647;28;19923;-50
2021/06/18 06:17:43;;;;;;;;;;;;;;;31.39;40.00;99700.19;5130664;28;19975;-39
2021/06/18 06:20:09;;;;;;;;;;;;;;;31.15;40.74;99696.28;5130852;28;20451;-47
2021/06/18 06:22:34;;;;;;;;;;;;;;;30.94;39.67;99693.66;5130557;28;19911;-52
2021/06/18 06:24:59;;;;;;;;;;;;;;;30.29;40.92;99693.31;5130422;28;19980;-51
2021/06/18 06:27:25;;;;;;;;;;;;;;;29.16;41.94;99689.34;5130374;28;19976;-49
2021/06/18 06:29:50;;;;;;;;;;;;;;;29.26;42.65;99693.66;5130333;28;19911;-49
2021/06/18 06:32:16;;;;;;;;;;;;;;;29.27;42.19;99686.28;5129674;28;19915;-49
2021/06/18 06:34:41;;;;;;;;;;;;;;;29.55;41.61;99681.09;5130411;27;19912;-51
2021/06/18 06:37:06;;;;;;;;;;;;;;;30.02;40.14;99684.50;5133888;27;19972;-47
2021/06/18 06:39:31;;;;;;;;;;;;;;;30.14;40.67;99680.19;5134580;27;19931;-49
2021/06/18 06:41:57;;;;;;;;;;;;;;;30.99;39.02;99684.38;5115616;27;20248;-50
2021/06/18 06:44:22;;;;;;;;;;;;;;;30.36;40.64;99679.84;5134291;27;19968;-50
2021/06/18 06:46:47;;;;;;;;;;;;;;;31.25;38.84;99680.50;5133255;27;19911;-48
2021/06/18 06:49:13;;;;;;;;;;;;;;;30.53;40.08;99683.56;5133921;27;19911;-49
2021/06/18 06:51:38;;;;;;;;;;;;;;;30.74;39.89;99681.56;5131306;27;20335;-50
2021/06/18 06:54:04;;;;;;;;;;;;;;;30.59;39.05;99671.22;5134230;27;19915;-49
2021/06/18 06:56:29;;;;;;;;;;;;;;;31.26;37.53;99673.84;5141478;27;20002;-49
2021/06/18 06:58:55;;;;;;;;;;;;;;;31.60;37.48;99669.03;5143216;27;19976;-51
2021/06/18 07:01:20;;;;;;;;;;;;;;;32.12;37.02;99651.69;5148780;27;19951;-49
2021/06/18 07:03:45;;;;;;;;;;;;;;;31.90;36.97;99658.53;5154201;27;19991;-49
2021/06/18 07:06:10;;;;;;;;;;;;;;;31.96;37.56;99657.91;5153961;27;20025;-50
2021/06/18 07:08:36;;;;;;;;;;;;;;;31.44;36.92;99658.72;5135599;27;19912;-50
2021/06/18 07:11:01;;;;;;;;;;;;;;;31.45;37.22;99643.81;5154648;27;19919;-51
2021/06/18 07:13:26;;;;;;;;;;;;;;;32.21;35.20;99646.84;5154773;27;19911;-51
2021/06/18 07:15:52;;;;;;;;;;;;;;;32.05;35.20;99646.00;5154094;27;20287;-49
2021/06/18 07:18:17;;;;;;;;;;;;;;;32.23;35.29;99643.75;5153392;27;19919;-52
2021/06/18 07:20:43;;;;;;;;;;;;;;;31.97;36.26;99639.47;5153220;27;19957;-51
2021/06/18 07:23:09;;;;;;;;;;;;;;;31.32;36.42;99644.97;5133660;27;19912;-48
2021/06/18 07:25:34;;;;;;;;;;;;;;;31.36;37.06;99641.22;5133471;27;20012;-51
2021/06/18 07:28:00;;;;;;;;;;;;;;;32.04;37.21;99639.69;5133393;27;20033;-49
2021/06/18 07:30:25;;;;;;;;;;;;;;;32.30;35.37;99630.97;5133489;27;19965;-50
2021/06/18 07:32:50;;;;;;;;;;;;;;;31.78;35.93;99640.13;5133596;27;19918;-50
2021/06/18 07:35:16;;;;;;;;;;;;;;;31.84;35.34;99633.22;5153207;27;20373;-48
2021/06/18 07:37:43;;;;;;;;;;;;;;;32.11;35.93;99631.63;5153983;27;20347;-50
2021/06/18 07:40:11;;;;;;;;;;;;;;;31.93;35.28;99628.38;5153856;27;19938;-51
2021/06/18 07:42:36;;;;;;;;;;;;;;;31.86;35.50;99633.66;5153673;27;19936;-50
2021/06/18 07:45:01;;;;;;;;;;;;;;;32.04;34.98;99628.69;5153548;27;20270;-50
2021/06/18 07:47:27;;;;;;;;;;;;;;;30.91;36.06;99628.41;5153371;27;19957;-49
2021/06/18 07:49:52;;;;;;;;;;;;;;;30.84;36.98;99627.34;5153150;27;19920;-49
2021/06/18 07:52:17;;;;;;;;;;;;;;;31.85;35.67;99637.56;5153624;27;20013;-50
2021/06/18 07:54:43;;;;;;;;;;;;;;;32.16;36.50;99630.59;5153811;27;19922;-49
2021/06/18 07:57:09;;;;;;;;;;;;;;;31.36;35.92;99629.41;5153685;27;19990;-50
2021/06/18 07:59:34;;;;;;;;;;;;;;;31.06;37.04;99626.91;5153714;27;19972;-52
2021/06/18 08:02:00;;;;;;;;;;;;;;;30.44;38.05;99620.53;5153433;27;19915;-50
2021/06/18 08:04:25;;;;;;;;;;;;;;;31.01;36.71;99624.38;5153771;27;19918;-50
2021/06/18 08:06:50;;;;;;;;;;;;;;;31.76;36.48;99620.41;5153427;27;19911;-49
2021/06/18 08:09:15;;;;;;;;;;;;;;;32.09;36.09;99613.88;5153289;27;19958;-51
2021/06/18 08:11:41;;;;;;;;;;;;;;;32.63;35.54;99616.09;5152910;27;19918;-48
2021/06/18 08:14:06;;;;;;;;;;;;;;;33.76;34.04;99618.34;5146352;27;19918;-49
2021/06/18 08:16:31;;;;;;;;;;;;;;;34.08;32.73;99610.69;5132257;27;19926;-51
2021/06/18 08:18:57;;;;;;;;;;;;;;;34.38;32.68;99603.75;5132413;27;20031;-49
2021/06/18 08:21:22;;;;;;;;;;;;;;;34.16;32.15;99592.34;5132398;27;20388;-50
2021/06/18 08:23:47;;;;;;;;;;;;;;;34.31;32.60;99596.16;5131715;27;20033;-51
2021/06/18 08:26:13;;;;;;;;;;;;;;;34.23;32.33;99598.00;5132161;27;19923;-49
2021/06/18 08:28:38;;;;;;;;;;;;;;;34.96;31.84;99609.09;5131318;27;19911;-51
2021/06/18 08:31:04;;;;;;;;;;;;;;;34.81;31.77;99605.31;5131562;27;19951;-48
2021/06/18 08:33:32;;;;;;;;;;;;;;;35.18;31.10;99612.97;5128003;27;19919;-52
2021/06/18 08:35:57;;;;;;;;;;;;;;;34.85;30.42;99608.91;5131975;27;19939;-52
2021/06/18 08:38:23;;;;;;;;;;;;;;;35.08;30.59;99590.69;5132108;27;19949;-50
2021/06/18 08:40:48;;;;;;;;;;;;;;;34.89;29.07;99599.88;5132191;27;20412;-50
2021/06/18 08:43:13;;;;;;;;;;;;;;;34.00;30.79;99603.41;5132157;27;19912;-51
2021/06/18 08:45:38;;;;;;;;;;;;;;;33.95;30.47;99602.91;5131983;27;20073;-50
2021/06/18 08:48:04;;;;;;;;;;;;;;;33.09;32.10;99597.16;5132028;27;19983;-48
2021/06/18 08:50:29;;;;;;;;;;;;;;;33.79;31.57;99597.50;5131958;27;19911;-49
2021/06/18 08:52:56;;;;;;;;;;;;;;;33.16;31.96;99602.03;5131577;27;20347;-49
2021/06/18 08:55:22;;;;;;;;;;;;;;;33.48;31.96;99590.94;5131376;27;19911;-49
2021/06/18 08:57:48;;;;;;;;;;;;;;;33.40;32.74;99589.97;5131289;27;19915;-49
2021/06/18 09:00:13;;;;;;;;;;;;;;;33.78;30.91;99593.94;5132259;27;19916;-48
2021/06/18 09:02:40;;;;;;;;;;;;;;;33.60;31.26;99587.22;5132123;27;19960;-51
2021/06/18 09:05:09;;;;;;;;;;;;;;;34.40;30.32;99587.59;5131464;27;19918;-50
2021/06/18 09:07:47;;;;;;;;;;;;;;;34.42;29.96;99588.03;5132442;27;19912;-50
2021/06/18 09:10:22;;;;;;;;;;;;;;;34.08;29.86;99583.09;5131834;27;20398;-50
2021/06/18 09:13:05;;;;;;;;;;;;;;;34.01;30.95;99588.47;5132351;27;19911;-48
2021/06/18 09:15:31;;;;;;;;;;;;;;;34.12;30.42;99572.13;5113321;27;19923;-49
2021/06/18 09:17:56;;;;;;;;;;;;;;;33.98;30.28;99574.59;5131848;27;20411;-48
2021/06/18 09:20:23;;;;;;;;;;;;;;;34.49;29.36;99577.13;5132136;27;19964;-49
2021/06/18 09:22:49;;;;;;;;;;;;;;;34.73;29.39;99566.84;5131677;27;20359;-50
2021/06/18 09:25:16;;;;;;;;;;;;;;;34.84;29.09;99565.06;5131585;27;19980;-48
2021/06/18 09:27:42;;;;;;;;;;;;;;;34.13;29.66;99568.19;5132031;27;19915;-50
2021/06/18 09:30:16;;;;;;;;;;;;;;;33.22;30.92;99564.75;5131908;27;19968;-50
2021/06/18 09:32:54;;;;;;;;;;;;;;;32.42;32.37;99558.50;5131656;27;20298;-50
2021/06/18 09:35:19;;;;;;;;;;;;;;;32.31;31.61;99571.19;5131592;27;19915;-49
2021/06/18 09:37:44;;;;;;;;;;;;;;;32.39;30.45;99564.75;5131872;27;19922;-49
2021/06/18 09:40:10;;;;;;;;;;;;;;;33.16;29.39;99563.44;5113229;27;20446;-50
2021/06/18 09:42:45;;;;;;;;;;;;;;;33.97;29.23;99561.97;5131985;27;20007;-50
2021/06/18 09:45:11;;;;;;;;;;;;;;;33.93;28.35;99556.41;5131971;27;20328;-50
2021/06/18 09:47:37;;;;;;;;;;;;;;;34.21;28.38;99555.34;5131899;27;19911;-50
2021/06/18 09:50:11;;;;;;;;;;;;;;;34.59;28.52;99559.91;5131332;27;19919;-49
2021/06/18 09:52:39;;;;;;;;;;;;;;;34.34;28.66;99564.22;5131375;27;19934;-50
2021/06/18 09:55:04;;;;;;;;;;;;;;;34.73;28.14;99559.38;5131839;27;20045;-53
2021/06/18 09:57:40;;;;;;;;;;;;;;;34.47;28.74;99560.13;5112841;27;19911;-51
2021/06/18 10:00:09;;;;;;;;;;;;;;;34.22;28.20;99557.72;5131032;27;19987;-50
2021/06/18 10:02:43;;;;;;;;;;;;;;;33.87;29.42;99550.38;5131573;27;20002;-50
2021/06/18 10:05:12;;;;;;;;;;;;;;;34.08;29.02;99546.38;5131285;28;20359;-51
2021/06/18 10:07:37;;;;;;;;;;;;;;;33.91;28.31;99547.69;5113131;28;20031;-51
2021/06/18 10:10:03;;;;;;;;;;;;;;;33.62;27.55;99544.31;5131806;27;19946;-51
2021/06/18 10:12:29;;;;;;;;;;;;;;;33.69;27.32;99550.00;5135795;27;20291;-49
2021/06/18 10:14:55;;;;;;;;;;;;;;;33.66;28.30;99538.91;5135833;27;19927;-52
2021/06/18 10:17:20;;;;;;;;;;;;;;;33.62;28.06;99549.03;5135834;27;19946;-51
2021/06/18 10:19:46;;;;;;;;;;;;;;;33.29;27.81;99544.84;5135742;27;20332;-50
2021/06/18 10:22:14;;;;;;;;;;;;;;;33.46;28.40;99544.41;5135543;27;19912;-50
2021/06/18 10:24:49;;;;;;;;;;;;;;;32.38;28.63;99534.81;5117415;27;19911;-50
2021/06/18 10:27:18;;;;;;;;;;;;;;;31.97;29.16;99532.19;5135162;27;19912;-50
2021/06/18 10:29:43;;;;;;;;;;;;;;;32.54;29.61;99532.84;5135338;27;19994;-51
2021/06/18 10:32:27;;;;;;;;;;;;;;;32.45;28.53;99532.25;5135584;27;19947;-50
2021/06/18 10:34:52;;;;;;;;;;;;;;;32.46;28.65;99531.06;5152507;27;19911;-50
2021/06/18 10:37:22;;;;;;;;;;;;;;;32.37;30.28;99528.50;5156141;27;19934;-51
2021/06/18 10:39:50;;;;;;;;;;;;;;;33.02;29.39;99530.84;5154782;27;19963;-51
2021/06/18 10:42:17;;;;;;;;;;;;;;;33.45;29.21;99529.03;5155709;27;19922;-51
2021/06/18 10:44:44;;;;;;;;;;;;;;;34.11;27.65;99520.81;5155879;27;19950;-51
2021/06/18 10:47:30;;;;;;;;;;;;;;;34.32;28.31;99522.38;5155703;27;19950;-49
2021/06/18 10:49:55;;;;;;;;;;;;;;;33.73;28.48;99516.19;5154967;27;20350;-50
2021/06/18 10:52:24;;;;;;;;;;;;;;;34.01;27.84;99513.94;5155646;27;19953;-51
2021/06/18 10:57:52;;;;;;;;;;;;;;;34.14;27.86;99508.25;5155280;27;19938;-50
2021/06/18 11:00:20;;;;;;;;;;;;;;;33.94;27.57;99500.03;5155305;27;20282;-50
2021/06/18 11:02:46;;;;;;;;;;;;;;;32.99;29.31;99506.75;5155517;27;19917;-49
2021/06/18 11:05:17;;;;;;;;;;;;;;;32.42;30.10;99503.44;5155396;27;19911;-50
2021/06/18 11:07:42;;;;;;;;;;;;;;;32.24;30.40;99500.25;5155707;27;20002;-49
2021/06/18 11:10:16;;;;;;;;;;;;;;;31.93;30.50;99498.28;5155542;27;19934;-50
2021/06/18 11:12:45;;;;;;;;;;;;;;;32.34;29.98;99498.94;5155309;27;19946;-50
2021/06/18 11:15:16;;;;;;;;;;;;;;;31.44;31.81;99488.28;5155188;27;19968;-50
2021/06/18 11:17:45;;;;;;;;;;;;;;;31.41;33.69;99494.47;5139745;27;19911;-49
2021/06/18 11:20:13;;;;;;;;;;;;;;;30.62;33.69;99486.59;5134052;27;19923;-48
2021/06/18 11:22:53;;;;;;;;;;;;;;;30.37;33.68;99486.59;5133282;27;20282;-49
2021/06/18 11:25:37;;;;;;;;;;;;;;;30.59;33.44;99484.53;5134086;27;20244;-46
2021/06/18 11:28:21;;;;;;;;;;;;;;;31.03;33.29;99481.19;5134383;27;19911;-50
2021/06/18 11:30:50;;;;;;;;;;;;;;;31.00;33.20;99479.94;5134127;27;19911;-49
2021/06/18 11:33:35;;;;;;;;;;;;;;;30.45;33.93;99486.84;5134440;27;19911;-48
2021/06/18 11:36:00;;;;;;;;;;;;;;;29.84;35.67;99482.06;5133975;27;19918;-51
2021/06/18 11:38:26;;;;;;;;;;;;;;;30.03;35.58;99485.06;5133795;27;19912;-51
2021/06/18 11:40:55;;;;;;;;;;;;;;;30.37;34.63;99478.38;5133998;27;19916;-48
2021/06/18 11:43:23;;;;;;;;;;;;;;;29.70;36.37;99480.38;5133702;27;20363;-50
2021/06/18 11:45:49;;;;;;;;;;;;;;;30.04;35.91;99486.66;5133663;27;20359;-50
2021/06/18 11:48:15;;;;;;;;;;;;;;;29.62;35.97;99471.09;5133605;27;19922;-50
2021/06/18 11:50:40;;;;;;;;;;;;;;;30.28;35.81;99472.16;5151799;27;19911;-48
2021/06/18 11:53:05;;;;;;;;;;;;;;;30.35;35.35;99471.63;5154418;27;19912;-50
2021/06/18 11:55:30;;;;;;;;;;;;;;;31.10;35.12;99476.72;5154103;27;19918;-49
2021/06/18 11:57:56;;;;;;;;;;;;;;;30.91;36.36;99476.53;5154494;27;19976;-50
2021/06/18 12:00:33;;;;;;;;;;;;;;;31.28;35.15;99476.41;5154603;27;19915;-48
2021/06/18 12:02:59;;;;;;;;;;;;;;;31.45;34.60;99475.31;5154290;27;19918;-49
2021/06/18 12:05:34;;;;;;;;;;;;;;;31.54;33.84;99476.78;5154069;27;19911;-51
2021/06/18 12:07:59;;;;;;;;;;;;;;;31.87;33.49;99469.41;5154632;27;19911;-48
2021/06/18 12:10:33;;;;;;;;;;;;;;;31.99;33.14;99474.03;5154199;27;20362;-50
2021/06/18 12:16:08;;;;;;;;;;;;;;;32.64;33.13;99471.75;5153724;27;19930;-50
2021/06/18 12:18:33;;;;;;;;;;;;;;;32.47;32.67;99466.59;5154220;27;19982;-51
2021/06/18 12:21:03;;;;;;;;;;;;;;;32.82;33.01;99471.34;5150579;27;19919;-52
2021/06/18 12:23:28;;;;;;;;;;;;;;;32.93;32.90;99469.63;5133405;27;19918;-51
2021/06/18 12:25:54;;;;;;;;;;;;;;;33.15;32.84;99467.34;5133288;27;19911;-51
2021/06/18 12:28:19;;;;;;;;;;;;;;;33.47;31.93;99466.03;5114872;27;19912;-49
2021/06/18 12:30:45;;;;;;;;;;;;;;;33.69;31.94;99461.75;5133352;27;19928;-51
2021/06/18 12:33:10;;;;;;;;;;;;;;;33.83;31.54;99461.22;5131758;27;19956;-51
2021/06/18 12:35:36;;;;;;;;;;;;;;;33.50;32.33;99462.53;5114493;27;19918;-48
2021/06/18 12:38:04;;;;;;;;;;;;;;;32.85;31.75;99456.84;5132082;27;20412;-49
2021/06/18 12:40:31;;;;;;;;;;;;;;;31.58;32.82;99463.16;5132482;27;19916;-51
2021/06/18 12:42:56;;;;;;;;;;;;;;;30.85;33.20;99455.91;5132304;27;19911;-49
2021/06/18 12:45:22;;;;;;;;;;;;;;;31.15;33.13;99462.72;5132400;27;20002;-48
2021/06/18 12:47:48;;;;;;;;;;;;;;;31.38;33.02;99460.25;5132787;27;19916;-51
2021/06/18 12:50:33;;;;;;;;;;;;;;;31.95;32.93;99462.97;5147693;27;19915;-52
2021/06/18 12:53:02;;;;;;;;;;;;;;;32.20;32.82;99463.59;5152954;27;19911;-51